地図

経路データ

SID SEASON NUMBER BASIN SUBBASIN NAME ISO_TIME NATURE LAT LON WMO_WIND WMO_PRES WMO_AGENCY TRACK_TYPE DIST2LAND LANDFALL IFLAG USA_AGENCY USA_ATCF_ID USA_LAT USA_LON USA_RECORD USA_STATUS USA_WIND USA_PRES USA_SSHS USA_R34_NE USA_R34_SE USA_R34_SW USA_R34_NW USA_R50_NE USA_R50_SE USA_R50_SW USA_R50_NW USA_R64_NE USA_R64_SE USA_R64_SW USA_R64_NW USA_POCI USA_ROCI USA_RMW USA_EYE TOKYO_LAT TOKYO_LON TOKYO_GRADE TOKYO_WIND TOKYO_PRES TOKYO_R50_DIR TOKYO_R50_LONG TOKYO_R50_SHORT TOKYO_R30_DIR TOKYO_R30_LONG TOKYO_R30_SHORT TOKYO_LAND CMA_LAT CMA_LON CMA_CAT CMA_WIND CMA_PRES HKO_LAT HKO_LON HKO_CAT HKO_WIND HKO_PRES NEWDELHI_LAT NEWDELHI_LON NEWDELHI_GRADE NEWDELHI_WIND NEWDELHI_PRES NEWDELHI_CI NEWDELHI_DP NEWDELHI_POCI REUNION_LAT REUNION_LON REUNION_TYPE REUNION_WIND REUNION_PRES REUNION_TNUM REUNION_CI REUNION_RMW REUNION_R34_NE REUNION_R34_SE REUNION_R34_SW REUNION_R34_NW REUNION_R50_NE REUNION_R50_SE REUNION_R50_SW REUNION_R50_NW REUNION_R64_NE REUNION_R64_SE REUNION_R64_SW REUNION_R64_NW BOM_LAT BOM_LON BOM_TYPE BOM_WIND BOM_PRES BOM_TNUM BOM_CI BOM_RMW BOM_R34_NE BOM_R34_SE BOM_R34_SW BOM_R34_NW BOM_R50_NE BOM_R50_SE BOM_R50_SW BOM_R50_NW BOM_R64_NE BOM_R64_SE BOM_R64_SW BOM_R64_NW BOM_ROCI BOM_POCI BOM_EYE BOM_POS_METHOD BOM_PRES_METHOD NADI_LAT NADI_LON NADI_CAT NADI_WIND NADI_PRES WELLINGTON_LAT WELLINGTON_LON WELLINGTON_WIND WELLINGTON_PRES DS824_LAT DS824_LON DS824_STAGE DS824_WIND DS824_PRES TD9636_LAT TD9636_LON TD9636_STAGE TD9636_WIND TD9636_PRES TD9635_LAT TD9635_LON TD9635_WIND TD9635_PRES TD9635_ROCI NEUMANN_LAT NEUMANN_LON NEUMANN_CLASS NEUMANN_WIND NEUMANN_PRES MLC_LAT MLC_LON MLC_CLASS MLC_WIND MLC_PRES USA_GUST BOM_GUST BOM_GUST_PER REUNION_GUST REUNION_GUST_PER USA_SEAHGT USA_SEARAD_NE USA_SEARAD_SE USA_SEARAD_SW USA_SEARAD_NW STORM_SPEED STORM_DIR
1882246N21268 1882 27 NA GM NOT_NAMED 1882-09-02 12:00:00 TS 20.5000 -92.0000 main 156 156 _____________O -1 20.5000 -92.0000 TD 30 5 2
1882246N21268 1882 27 NA GM NOT_NAMED 1882-09-02 15:00:00 TS 20.7500 -91.9876 main 159 157 _____________P -1 20.7500 -91.9876 TD 30 5 2
1882246N21268 1882 27 NA GM NOT_NAMED 1882-09-02 18:00:00 TS 21.0000 -92.0000 main 165 165 _____________O -1 21.0000 -92.0000 TD 30 5 353
1882246N21268 1882 27 NA GM NOT_NAMED 1882-09-02 21:00:00 TS 21.2500 -92.0499 main 175 175 _____________P -1 21.2500 -92.0499 TD 30 5 349
1882246N21268 1882 27 NA GM NOT_NAMED 1882-09-03 00:00:00 TS 21.5000 -92.1000 main 191 191 _____________O -1 21.5000 -92.1000 TD 30 5 355
1882246N21268 1882 27 NA GM NOT_NAMED 1882-09-03 03:00:00 TS 21.7500 -92.1001 main 198 198 _____________P -1 21.7500 -92.1001 TD 30 5 2
1882246N21268 1882 27 NA GM NOT_NAMED 1882-09-03 06:00:00 TS 22.0000 -92.1000 main 211 211 _____________O -1 22.0000 -92.1000 TD 30 5 359
1882246N21268 1882 27 NA GM NOT_NAMED 1882-09-03 09:00:00 TS 22.2425 -92.1276 main 222 222 _____________P -1 22.2425 -92.1276 TD 30 5 350
1882246N21268 1882 27 NA GM NOT_NAMED 1882-09-03 12:00:00 TS 22.5000 -92.2000 main 250 250 _____________O -1 22.5000 -92.2000 TD 30 6 341
1882246N21268 1882 27 NA GM NOT_NAMED 1882-09-03 15:00:00 TS 22.7925 -92.3275 main 280 280 _____________P -1 22.7925 -92.3275 TD 30 7 335
1882246N21268 1882 27 NA GM NOT_NAMED 1882-09-03 18:00:00 TS 23.1000 -92.5000 main 318 318 _____________O -1 23.1000 -92.5000 TD 30 7 331
1882246N21268 1882 27 NA GM NOT_NAMED 1882-09-03 21:00:00 TS 23.4000 -92.7000 main 356 356 _____________P -1 23.4000 -92.7000 TD 30 7 329
1882246N21268 1882 27 NA GM NOT_NAMED 1882-09-04 00:00:00 TS 23.7000 -92.9000 main 394 394 _____________O -1 23.7000 -92.9000 TD 30 7 332
1882246N21268 1882 27 NA GM NOT_NAMED 1882-09-04 03:00:00 TS 24.0075 -93.0576 main 433 428 _____________P -1 24.0075 -93.0576 TD 32 7 335
1882246N21268 1882 27 NA GM NOT_NAMED 1882-09-04 06:00:00 TS 24.3000 -93.2000 main 428 411 _____________O -1 24.3000 -93.2000 TS 35 6 337
1882246N21268 1882 27 NA GM NOT_NAMED 1882-09-04 09:00:00 TS 24.5196 -93.2909 main 411 382 _____________P -1 24.5196 -93.2909 TS 35 6 331
1882246N21268 1882 27 NA GM NOT_NAMED 1882-09-04 12:00:00 TS 24.8000 -93.5000 main 382 323 _____________O -1 24.8000 -93.5000 TS 35 10 319
1882246N21268 1882 27 NA GM NOT_NAMED 1882-09-04 15:00:00 TS 25.2629 -93.9969 main 320 250 _____________P -1 25.2629 -93.9969 TS 35 14 315
1882246N21268 1882 27 NA GM NOT_NAMED 1882-09-04 18:00:00 TS 25.8000 -94.6000 main 250 202 _____________O -1 25.8000 -94.6000 TS 35 15 316
1882246N21268 1882 27 NA GM NOT_NAMED 1882-09-04 21:00:00 TS 26.3601 -95.1594 main 194 173 _____________P -1 26.3601 -95.1594 TS 35 13 318
1882246N21268 1882 27 NA GM NOT_NAMED 1882-09-05 00:00:00 TS 26.8000 -95.6000 main 173 162 _____________O -1 26.8000 -95.6000 TS 35 8 316
1882246N21268 1882 27 NA GM NOT_NAMED 1882-09-05 03:00:00 TS 26.9522 -95.8033 main 158 149 _____________P -1 26.9522 -95.8033 TS 37 3 307
1882246N21268 1882 27 NA GM NOT_NAMED 1882-09-05 06:00:00 TS 27.0000 -95.9000 main 149 135 _____________O -1 27.0000 -95.9000 TS 40 3 312
1882246N21268 1882 27 NA GM NOT_NAMED 1882-09-05 09:00:00 TS 27.1500 -96.0500 main 135 110 _____________P -1 27.1500 -96.0500 TS 45 4 318
1882246N21268 1882 27 NA GM NOT_NAMED 1882-09-05 12:00:00 TS 27.3000 -96.2000 main 110 97 _____________O -1 27.3000 -96.2000 TS 50 4 313
1882246N21268 1882 27 NA GM NOT_NAMED 1882-09-05 15:00:00 TS 27.4000 -96.3501 main 89 76 _____________P -1 27.4000 -96.3501 TS 55 3 307
1882246N21268 1882 27 NA GM NOT_NAMED 1882-09-05 18:00:00 TS 27.5000 -96.5000 main 76 63 _____________O -1 27.5000 -96.5000 TS 60 4 313
1882246N21268 1882 27 NA GM NOT_NAMED 1882-09-05 21:00:00 TS 27.6500 -96.6575 main 48 34 _____________P -1 27.6500 -96.6575 TS 62 4 319
1882246N21268 1882 27 NA GM NOT_NAMED 1882-09-06 00:00:00 TS 27.8000 -96.8000 main 34 22 _____________O -1 27.8000 -96.8000 HU 65 3 318
1882246N21268 1882 27 NA GM NOT_NAMED 1882-09-06 03:00:00 TS 27.8849 -96.8927 main 22 9 _____________P -1 27.8849 -96.8927 HU 65 3 318
1882246N21268 1882 27 NA GM NOT_NAMED 1882-09-06 06:00:00 TS 28.0000 -97.0000 main 9 0 _____________O -1 28.0000 -97.0000 HU 65 4 323
1882246N21268 1882 27 NA NA NOT_NAMED 1882-09-06 09:00:00 TS 28.2275 -97.1849 main 0 0 _____________P -1 28.2275 -97.1849 HU 57 6 325
1882246N21268 1882 27 NA NA NOT_NAMED 1882-09-06 12:00:00 TS 28.5000 -97.4000 main 0 0 _____________O -1 28.5000 -97.4000 TS 50 7 322
1882246N21268 1882 27 NA NA NOT_NAMED 1882-09-06 15:00:00 TS 28.7426 -97.6373 main 0 0 _____________P -1 28.7426 -97.6373 TS 42 6 325
1882246N21268 1882 27 NA NA NOT_NAMED 1882-09-06 18:00:00 TS 29.0000 -97.8000 main 0 0 _____________O -1 29.0000 -97.8000 TS 35 6 344
1882246N21268 1882 27 NA NA NOT_NAMED 1882-09-06 21:00:00 TS 29.2849 -97.8100 main 0 0 _____________P -1 29.2849 -97.8100 TS 27 6 8
1882246N21268 1882 27 NA NA NOT_NAMED 1882-09-07 00:00:00 TS 29.6000 -97.7000 main 0 0 _____________O -1 29.6000 -97.7000 TD 20 7 20
1882246N21268 1882 27 NA NA NOT_NAMED 1882-09-07 03:00:00 TS 29.9800 -97.5229 main 0 0 _____________P -1 29.9800 -97.5229 TD 20 8 26
1882246N21268 1882 27 NA NA NOT_NAMED 1882-09-07 06:00:00 TS 30.3000 -97.3000 main 0 0 _____________O -1 30.3000 -97.3000 TD 20 6 38
1882246N21268 1882 27 NA NA NOT_NAMED 1882-09-07 09:00:00 TS 30.4525 -97.0923 main 0 0 _____________P -1 30.4525 -97.0923 TD 20 4 60
1882246N21268 1882 27 NA NA NOT_NAMED 1882-09-07 12:00:00 TS 30.5000 -96.9000 main 0 _____________O -1 30.5000 -96.9000 TD 20 3 74

IBTrACS Databaseについて

本データベースは、米国NOAAが公開する1842年以降の世界の熱帯低気圧のベストトラックデータアーカイブInternational Best Track Archive for Climate Stewardship (IBTrACS)を、ウェブで閲覧しやすい形式に変換したものです。

最終更新日:2021-10-21